createdAt,value
2022-10-29T00:01:16.741Z,3.27
2022-10-29T00:03:44.298Z,2.70
2022-10-29T00:06:12.406Z,2.77
2022-10-29T00:08:40.177Z,2.80
2022-10-29T00:11:08.843Z,2.83
2022-10-29T00:13:36.725Z,3.00
2022-10-29T00:16:08.488Z,2.87
2022-10-29T00:18:35.921Z,2.77
2022-10-29T00:21:04.075Z,2.77
2022-10-29T00:23:31.440Z,2.80
2022-10-29T00:25:59.449Z,2.90
2022-10-29T00:28:27.267Z,2.77
2022-10-29T00:30:54.650Z,2.77
2022-10-29T00:33:22.097Z,3.10
2022-10-29T00:36:15.919Z,2.60
2022-10-29T00:38:43.926Z,3.43
2022-10-29T00:41:12.940Z,2.70
2022-10-29T00:43:42.269Z,3.33
2022-10-29T00:46:09.639Z,3.00
2022-10-29T00:48:40.432Z,3.33
2022-10-29T00:51:09.595Z,2.70
2022-10-29T00:53:39.169Z,3.07
2022-10-29T00:56:06.724Z,3.30
2022-10-29T00:58:34.218Z,3.03
2022-10-29T01:01:02.053Z,2.80
2022-10-29T01:03:29.428Z,2.90
2022-10-29T01:05:57.142Z,2.97
2022-10-29T01:08:24.488Z,2.93
2022-10-29T01:11:16.922Z,2.90
2022-10-29T01:13:56.330Z,3.00
2022-10-29T01:16:42.112Z,2.80
2022-10-29T01:19:12.581Z,3.30
2022-10-29T01:21:47.911Z,2.83
2022-10-29T01:24:21.432Z,3.17
2022-10-29T01:26:51.909Z,2.87
2022-10-29T01:29:22.287Z,3.17
2022-10-29T01:32:05.472Z,3.03
2022-10-29T01:34:55.342Z,3.10
2022-10-29T01:37:41.047Z,2.77
2022-10-29T01:40:13.337Z,3.13
2022-10-29T01:42:43.083Z,2.80
2022-10-29T01:45:25.536Z,3.00
2022-10-29T01:48:03.009Z,2.67
2022-10-29T01:50:30.472Z,2.80
2022-10-29T01:52:59.302Z,3.10
2022-10-29T01:55:31.398Z,2.80
2022-10-29T01:57:59.573Z,2.80
2022-10-29T02:00:28.584Z,3.20
2022-10-29T02:03:11.717Z,2.90
2022-10-29T02:05:43.636Z,3.20
2022-10-29T02:08:29.983Z,2.80
2022-10-29T02:11:09.846Z,2.93
2022-10-29T02:13:47.427Z,2.80
2022-10-29T02:16:15.598Z,3.17
2022-10-29T02:18:50.509Z,2.70
2022-10-29T02:21:19.181Z,2.80
2022-10-29T02:23:47.516Z,3.03
2022-10-29T02:26:15.449Z,2.90
2022-10-29T02:28:43.906Z,3.00
2022-10-29T02:31:12.132Z,3.10
2022-10-29T02:33:40.182Z,2.60
2022-10-29T02:36:08.418Z,2.73
2022-10-29T02:38:36.246Z,3.20
2022-10-29T02:41:04.109Z,3.27
2022-10-29T02:43:31.945Z,3.13
2022-10-29T02:46:19.769Z,3.03
2022-10-29T02:48:48.400Z,2.97
2022-10-29T02:51:16.385Z,3.03
2022-10-29T02:53:44.317Z,2.87
2022-10-29T02:56:12.272Z,2.80
2022-10-29T02:58:40.345Z,2.80
2022-10-29T03:01:08.217Z,2.73
2022-10-29T03:03:36.230Z,2.97
2022-10-29T03:06:04.245Z,2.93
2022-10-29T03:08:32.101Z,3.17
2022-10-29T03:10:59.937Z,2.83
2022-10-29T03:13:27.821Z,3.00
2022-10-29T03:15:55.670Z,3.20
2022-10-29T03:18:23.508Z,2.70
2022-10-29T03:20:51.539Z,3.20
2022-10-29T03:23:19.461Z,2.80
2022-10-29T03:25:55.660Z,2.63
2022-10-29T03:28:25.419Z,2.77
2022-10-29T03:30:55.603Z,2.97
2022-10-29T03:33:23.582Z,2.93
2022-10-29T03:35:51.607Z,3.00
2022-10-29T03:38:19.487Z,3.10
2022-10-29T03:40:47.439Z,2.80
2022-10-29T03:43:15.205Z,3.03
2022-10-29T03:45:43.046Z,2.70
2022-10-29T03:48:11.296Z,2.93
2022-10-29T03:50:39.235Z,2.97
2022-10-29T03:53:07.140Z,3.07
2022-10-29T03:55:34.990Z,3.07
2022-10-29T03:58:02.846Z,2.73
2022-10-29T04:00:30.667Z,2.87
2022-10-29T04:02:58.935Z,3.07
2022-10-29T04:05:27.107Z,3.27
2022-10-29T04:07:55.051Z,2.90
2022-10-29T04:10:22.952Z,2.90
2022-10-29T04:12:50.819Z,3.00
2022-10-29T04:15:18.739Z,3.10
2022-10-29T04:17:46.643Z,3.17
2022-10-29T04:20:31.723Z,2.90
2022-10-29T04:28:45.296Z,2.50
2022-10-29T04:31:13.747Z,2.77
2022-10-29T04:33:41.593Z,3.10
2022-10-29T04:36:09.653Z,3.00
2022-10-29T04:38:37.512Z,2.93
2022-10-29T04:41:05.446Z,3.20
2022-10-29T04:43:33.364Z,2.73
2022-10-29T04:46:01.256Z,2.83
2022-10-29T04:48:29.555Z,3.00
2022-10-29T04:50:57.453Z,2.73
2022-10-29T04:53:25.569Z,2.93
2022-10-29T04:56:00.109Z,2.70
2022-10-29T04:58:27.961Z,2.40
2022-10-29T05:00:55.919Z,2.90
2022-10-29T05:03:23.934Z,3.10
2022-10-29T05:05:51.911Z,3.20
2022-10-29T05:08:20.437Z,2.80
2022-10-29T05:10:48.207Z,2.80
2022-10-29T05:13:16.109Z,3.27
2022-10-29T05:15:45.930Z,2.90
2022-10-29T05:18:15.817Z,3.27
2022-10-29T05:20:43.954Z,3.10
2022-10-29T05:23:12.471Z,3.30
2022-10-29T05:25:41.232Z,3.47
2022-10-29T05:28:12.712Z,3.40
2022-10-29T05:30:41.862Z,3.20
2022-10-29T05:33:10.265Z,3.20
2022-10-29T05:35:38.485Z,3.30
2022-10-29T05:38:06.484Z,3.00
2022-10-29T05:40:34.480Z,3.03
2022-10-29T05:43:02.384Z,3.53
2022-10-29T05:45:30.310Z,3.30
2022-10-29T05:47:58.926Z,3.53
2022-10-29T05:50:27.323Z,3.30
2022-10-29T05:52:59.247Z,4.10
2022-10-29T05:55:27.794Z,4.03
2022-10-29T05:57:59.145Z,5.10
2022-10-29T06:00:28.068Z,3.43
2022-10-29T06:02:56.549Z,3.50
2022-10-29T06:05:24.890Z,3.40
2022-10-29T06:07:59.579Z,3.20
2022-10-29T06:10:28.675Z,3.80
2022-10-29T06:12:56.656Z,3.90
2022-10-29T06:15:24.503Z,3.90
2022-10-29T06:17:52.437Z,3.30
2022-10-29T06:20:21.399Z,3.00
2022-10-29T06:22:57.172Z,3.40
2022-10-29T06:25:25.799Z,3.10
2022-10-29T06:28:06.950Z,3.10
2022-10-29T06:30:35.436Z,3.60
2022-10-29T06:33:04.207Z,3.30
2022-10-29T06:35:32.399Z,3.17
2022-10-29T06:38:00.819Z,3.70
2022-10-29T06:40:29.268Z,3.30
2022-10-29T06:43:05.929Z,3.50
2022-10-29T06:45:34.646Z,3.50
2022-10-29T06:48:02.818Z,3.60
2022-10-29T06:50:30.748Z,3.50
2022-10-29T06:53:00.200Z,3.70
2022-10-29T06:55:28.507Z,3.67
2022-10-29T06:58:03.524Z,3.50
2022-10-29T07:00:32.020Z,3.70
2022-10-29T07:03:00.516Z,3.60
2022-10-29T07:05:28.799Z,3.77
2022-10-29T07:07:58.035Z,4.00
2022-10-29T07:10:27.278Z,3.97
2022-10-29T07:12:55.313Z,4.00
2022-10-29T07:15:27.270Z,3.90
2022-10-29T07:17:59.643Z,3.67
2022-10-29T07:20:28.275Z,4.30
2022-10-29T07:22:57.864Z,4.50
2022-10-29T07:25:25.781Z,4.70
2022-10-29T07:27:53.912Z,4.53
2022-10-29T07:30:22.084Z,4.53
2022-10-29T07:32:49.903Z,5.20
2022-10-29T07:35:18.239Z,5.63
2022-10-29T07:37:46.216Z,4.73
2022-10-29T07:40:14.302Z,4.97
2022-10-29T07:42:42.205Z,4.50
2022-10-29T07:45:10.382Z,4.73
2022-10-29T07:47:38.381Z,4.77
2022-10-29T07:50:06.334Z,4.30
2022-10-29T07:52:34.326Z,3.97
2022-10-29T07:55:02.964Z,4.13
2022-10-29T07:57:30.887Z,4.33
2022-10-29T08:00:00.010Z,4.03
2022-10-29T08:02:29.009Z,4.43
2022-10-29T08:04:56.874Z,4.37
2022-10-29T08:07:24.815Z,4.13
2022-10-29T08:09:52.645Z,4.20
2022-10-29T08:12:20.535Z,3.97
2022-10-29T08:14:48.465Z,4.50
2022-10-29T08:17:16.246Z,4.27
2022-10-29T08:19:44.233Z,4.00
2022-10-29T08:22:12.235Z,4.20
2022-10-29T08:24:40.173Z,3.83
2022-10-29T08:27:07.996Z,4.03
2022-10-29T08:29:35.835Z,3.93
2022-10-29T08:32:03.748Z,4.17
2022-10-29T08:34:31.698Z,4.23
2022-10-29T08:36:59.605Z,3.97
2022-10-29T08:39:27.421Z,4.20
2022-10-29T08:42:27.597Z,4.10
2022-10-29T08:45:13.943Z,4.20
2022-10-29T08:48:08.969Z,3.60
2022-10-29T08:50:41.474Z,4.00
2022-10-29T08:53:24.598Z,3.90
2022-10-29T08:55:54.543Z,4.50
2022-10-29T08:58:38.485Z,4.43
2022-10-29T09:01:11.026Z,4.30
2022-10-29T09:03:39.193Z,4.23
2022-10-29T09:06:18.427Z,4.70
2022-10-29T09:08:55.472Z,4.90
2022-10-29T09:11:38.064Z,4.90
2022-10-29T09:14:14.995Z,4.50
2022-10-29T09:16:50.131Z,4.60
2022-10-29T09:19:36.361Z,4.60
2022-10-29T09:22:04.270Z,4.50
2022-10-29T09:24:50.547Z,4.10
2022-10-29T09:27:23.847Z,4.23
2022-10-29T09:29:58.048Z,4.77
2022-10-29T09:32:30.053Z,4.90
2022-10-29T09:35:01.514Z,5.13
2022-10-29T09:37:39.273Z,5.00
2022-10-29T09:40:07.978Z,4.90
2022-10-29T09:42:37.886Z,4.60
2022-10-29T09:45:09.664Z,4.47
2022-10-29T09:47:47.561Z,4.70
2022-10-29T09:50:34.118Z,5.43
2022-10-29T09:53:02.029Z,5.17
2022-10-29T09:55:32.683Z,5.03
2022-10-29T09:58:00.693Z,4.80
2022-10-29T10:00:29.945Z,4.80
2022-10-29T10:03:04.861Z,5.00
2022-10-29T10:05:34.411Z,5.70
2022-10-29T10:08:07.067Z,5.33
2022-10-29T10:10:36.250Z,4.93
2022-10-29T10:13:05.178Z,5.53
2022-10-29T10:15:37.925Z,5.47
2022-10-29T10:18:18.964Z,5.77
2022-10-29T10:20:49.479Z,5.20
2022-10-29T10:23:25.261Z,5.17
2022-10-29T10:25:54.181Z,5.13
2022-10-29T10:28:25.249Z,5.63
2022-10-29T10:31:04.999Z,5.30
2022-10-29T10:33:37.423Z,5.73
2022-10-29T10:36:09.549Z,4.70
2022-10-29T10:38:42.784Z,5.30
2022-10-29T10:41:11.955Z,5.47
2022-10-29T10:43:42.549Z,5.27
2022-10-29T10:46:17.325Z,5.07
2022-10-29T10:48:45.282Z,5.27
2022-10-29T10:51:33.430Z,4.87
2022-10-29T10:54:02.807Z,5.00
2022-10-29T10:56:32.263Z,5.07
2022-10-29T10:59:02.880Z,5.03
2022-10-29T11:01:52.169Z,5.13
2022-10-29T11:04:28.346Z,4.90
2022-10-29T11:06:59.072Z,4.63
2022-10-29T11:09:27.065Z,4.80
2022-10-29T11:12:02.247Z,4.73
2022-10-29T11:14:44.921Z,5.40
2022-10-29T11:17:39.083Z,5.00
2022-10-29T11:20:17.191Z,5.20
2022-10-29T11:22:45.045Z,5.07
2022-10-29T11:25:18.878Z,5.40
2022-10-29T11:27:49.959Z,5.03
2022-10-29T11:30:18.783Z,5.10
2022-10-29T11:32:58.650Z,5.47
2022-10-29T11:35:42.110Z,4.93
2022-10-29T11:38:13.770Z,5.18
2022-10-29T11:40:50.561Z,5.00
2022-10-29T11:43:20.668Z,5.15
2022-10-29T11:45:48.515Z,5.35
2022-10-29T11:51:02.073Z,4.50
2022-10-29T11:53:32.979Z,4.82
2022-10-29T11:56:06.547Z,4.95
2022-10-29T11:58:41.583Z,4.95
2022-10-29T12:01:21.345Z,5.25
2022-10-29T12:03:55.205Z,4.30
2022-10-29T12:06:26.495Z,4.68
2022-10-29T12:09:13.090Z,4.95
2022-10-29T12:11:44.287Z,4.60
2022-10-29T12:14:41.404Z,4.72
2022-10-29T12:17:19.957Z,4.38
2022-10-29T12:19:53.201Z,4.63
2022-10-29T12:22:24.446Z,4.38
2022-10-29T12:25:11.266Z,4.32
2022-10-29T12:27:50.522Z,4.35
2022-10-29T12:30:19.632Z,4.47
2022-10-29T12:33:02.768Z,4.70
2022-10-29T12:35:32.364Z,4.75
2022-10-29T12:38:03.226Z,4.32
2022-10-29T12:40:33.478Z,4.60
2022-10-29T12:43:04.317Z,4.40
2022-10-29T12:45:53.075Z,4.65
2022-10-29T12:48:27.168Z,4.22
2022-10-29T12:50:54.944Z,4.65
2022-10-29T12:53:38.901Z,4.53
2022-10-29T12:56:08.533Z,4.00
2022-10-29T12:58:46.744Z,4.63
2022-10-29T13:01:49.991Z,5.03
2022-10-29T13:04:24.149Z,4.57
2022-10-29T13:06:59.535Z,4.43
2022-10-29T13:09:28.900Z,4.90
2022-10-29T13:11:56.742Z,5.03
2022-10-29T13:14:30.346Z,5.40
2022-10-29T13:16:59.162Z,4.60
2022-10-29T13:19:38.271Z,5.15
2022-10-29T13:22:06.151Z,4.22
2022-10-29T13:24:34.156Z,4.30
2022-10-29T13:27:06.102Z,4.32
2022-10-29T13:29:49.235Z,4.32
2022-10-29T13:32:38.900Z,4.40
2022-10-29T13:35:27.491Z,4.35
2022-10-29T13:37:56.064Z,4.20
2022-10-29T13:40:24.022Z,4.18
2022-10-29T13:43:12.195Z,3.83
2022-10-29T13:45:42.362Z,3.97
2022-10-29T13:48:31.054Z,4.13
2022-10-29T13:50:59.925Z,4.15
2022-10-29T13:53:33.442Z,3.97
2022-10-29T13:56:01.947Z,3.97
2022-10-29T13:58:31.491Z,4.10
2022-10-29T14:01:00.223Z,3.95
2022-10-29T14:03:42.504Z,3.90
2022-10-29T14:06:13.304Z,4.13
2022-10-29T14:09:12.140Z,3.90
2022-10-29T14:11:41.539Z,3.75
2022-10-29T14:14:22.266Z,3.97
2022-10-29T14:16:50.198Z,4.18
2022-10-29T14:19:22.231Z,4.18
2022-10-29T14:21:50.050Z,4.00
2022-10-29T14:24:18.103Z,3.78
2022-10-29T14:26:46.708Z,3.90
2022-10-29T14:29:15.844Z,4.18
2022-10-29T14:31:43.704Z,4.55
2022-10-29T14:34:23.322Z,4.03
2022-10-29T14:36:52.050Z,4.30
2022-10-29T14:39:32.451Z,4.13
2022-10-29T14:42:06.325Z,4.00
2022-10-29T14:44:34.516Z,3.90
2022-10-29T14:47:05.678Z,3.40
2022-10-29T14:49:35.030Z,3.80
2022-10-29T14:52:07.940Z,3.50
2022-10-29T14:54:37.949Z,4.00
2022-10-29T14:57:08.823Z,3.75
2022-10-29T14:59:36.905Z,3.67
2022-10-29T15:02:36.346Z,3.85
2022-10-29T15:05:04.408Z,3.80
2022-10-29T15:07:35.719Z,3.30
2022-10-29T15:10:09.745Z,3.55
2022-10-29T15:12:38.884Z,3.50
2022-10-29T15:15:11.656Z,3.88
2022-10-29T15:17:44.826Z,3.60
2022-10-29T15:20:20.639Z,3.22
2022-10-29T15:22:52.874Z,3.40
2022-10-29T15:25:25.104Z,3.92
2022-10-29T15:27:53.607Z,3.50
2022-10-29T15:30:22.352Z,3.40
2022-10-29T15:32:50.525Z,3.72
2022-10-29T15:35:23.958Z,3.92
2022-10-29T15:37:51.953Z,3.78
2022-10-29T15:40:21.415Z,3.70
2022-10-29T15:42:49.729Z,3.83
2022-10-29T15:45:25.200Z,3.83
2022-10-29T15:47:55.967Z,3.38
2022-10-29T15:50:25.954Z,3.85
2022-10-29T15:52:58.422Z,3.47
2022-10-29T15:55:28.200Z,3.60
2022-10-29T15:58:12.517Z,3.80
2022-10-29T16:00:40.531Z,3.60
2022-10-29T16:03:27.987Z,3.47
2022-10-29T16:05:57.428Z,2.88
2022-10-29T16:08:37.662Z,3.17
2022-10-29T16:11:09.816Z,3.80
2022-10-29T16:13:37.804Z,3.40
2022-10-29T16:16:06.149Z,3.80
2022-10-29T16:18:34.065Z,3.42
2022-10-29T16:21:03.052Z,3.70
2022-10-29T16:23:31.117Z,3.38
2022-10-29T16:25:59.168Z,4.28
2022-10-29T16:28:29.775Z,3.15
2022-10-29T16:30:59.779Z,3.80
2022-10-29T16:33:27.812Z,3.45
2022-10-29T16:35:55.722Z,3.70
2022-10-29T16:38:23.698Z,4.43
2022-10-29T16:40:52.064Z,3.95
2022-10-29T16:43:20.316Z,3.88
2022-10-29T16:45:48.424Z,4.10
2022-10-29T16:48:16.364Z,4.10
2022-10-29T16:50:44.291Z,3.92
2022-10-29T16:53:12.314Z,4.22
2022-10-29T16:55:40.818Z,4.32
2022-10-29T16:58:15.552Z,4.28
2022-10-29T17:00:43.466Z,4.22
2022-10-29T17:03:12.682Z,4.43
2022-10-29T17:05:42.143Z,3.63
2022-10-29T17:08:10.523Z,3.72
2022-10-29T17:10:38.575Z,3.60
2022-10-29T17:13:11.932Z,3.70
2022-10-29T17:15:42.929Z,3.65
2022-10-29T17:18:10.909Z,3.67
2022-10-29T17:20:38.717Z,3.35
2022-10-29T17:23:06.569Z,3.78
2022-10-29T17:25:34.601Z,4.03
2022-10-29T17:28:03.916Z,3.38
2022-10-29T17:30:32.083Z,3.67
2022-10-29T17:33:00.551Z,3.63
2022-10-29T17:35:28.832Z,3.35
2022-10-29T17:37:56.677Z,3.22
2022-10-29T17:40:24.657Z,3.55
2022-10-29T17:42:52.601Z,3.25
2022-10-29T17:45:22.906Z,3.10
2022-10-29T17:47:55.575Z,3.30
2022-10-29T17:50:24.344Z,3.15
2022-10-29T17:52:58.116Z,3.30
2022-10-29T17:55:26.144Z,3.25
2022-10-29T17:57:54.085Z,3.60
2022-10-29T18:00:22.246Z,3.30
2022-10-29T18:02:53.462Z,3.28
2022-10-29T18:05:22.158Z,2.95
2022-10-29T18:07:50.004Z,3.08
2022-10-29T18:10:18.248Z,3.17
2022-10-29T18:12:46.081Z,3.45
2022-10-29T18:15:13.936Z,3.15
2022-10-29T18:17:41.993Z,3.08
2022-10-29T18:20:10.396Z,3.30
2022-10-29T18:22:38.408Z,3.03
2022-10-29T18:25:06.485Z,3.25
2022-10-29T18:27:34.445Z,2.92
2022-10-29T18:30:02.313Z,3.03
2022-10-29T18:32:30.376Z,3.15
2022-10-29T18:34:58.288Z,3.22
2022-10-29T18:37:26.169Z,3.40
2022-10-29T18:39:56.554Z,3.33
2022-10-29T18:42:24.542Z,3.22
2022-10-29T18:44:52.319Z,3.45
2022-10-29T18:47:20.190Z,3.05
2022-10-29T18:49:48.008Z,2.95
2022-10-29T18:52:15.982Z,3.05
2022-10-29T18:54:43.917Z,3.20
2022-10-29T18:57:15.402Z,2.88
2022-10-29T18:59:46.691Z,3.42
2022-10-29T19:02:14.729Z,3.03
2022-10-29T19:04:42.717Z,3.33
2022-10-29T19:07:10.587Z,2.78
2022-10-29T19:09:38.500Z,2.78
2022-10-29T19:12:06.525Z,3.00
2022-10-29T19:14:34.277Z,3.20
2022-10-29T19:17:02.067Z,3.00
2022-10-29T19:19:29.900Z,3.20
2022-10-29T19:21:57.752Z,3.08
2022-10-29T19:24:25.567Z,3.30
2022-10-29T19:26:53.936Z,3.17
2022-10-29T19:29:21.789Z,3.65
2022-10-29T19:31:49.665Z,3.30
2022-10-29T19:34:17.741Z,3.58
2022-10-29T19:36:45.582Z,4.80
2022-10-29T19:39:13.383Z,6.30
2022-10-29T19:41:41.185Z,6.43
2022-10-29T19:44:09.072Z,6.95
2022-10-29T19:46:37.024Z,6.47
2022-10-29T19:49:05.007Z,5.03
2022-10-29T19:51:32.830Z,4.60
2022-10-29T19:54:02.263Z,3.88
2022-10-29T19:56:30.771Z,3.67
2022-10-29T19:58:58.950Z,3.45
2022-10-29T20:01:27.020Z,3.43
2022-10-29T20:03:55.061Z,3.73
2022-10-29T20:06:23.074Z,3.67
2022-10-29T20:08:51.298Z,3.40
2022-10-29T20:11:19.220Z,4.07
2022-10-29T20:13:47.210Z,3.57
2022-10-29T20:16:17.228Z,3.17
2022-10-29T20:18:45.313Z,3.30
2022-10-29T20:21:14.032Z,3.57
2022-10-29T20:23:42.016Z,3.13
2022-10-29T20:26:10.350Z,2.93
2022-10-29T20:28:38.381Z,3.37
2022-10-29T20:31:27.869Z,2.93
2022-10-29T20:33:59.225Z,3.13
2022-10-29T20:36:29.131Z,3.37
2022-10-29T20:38:57.205Z,3.00
2022-10-29T20:41:25.506Z,3.00
2022-10-29T20:43:54.648Z,3.20
2022-10-29T20:46:23.184Z,3.47
2022-10-29T20:48:51.145Z,3.07
2022-10-29T20:51:19.332Z,3.00
2022-10-29T20:53:47.281Z,2.80
2022-10-29T20:56:16.526Z,3.00
2022-10-29T20:58:45.162Z,2.87
2022-10-29T21:01:14.882Z,3.10
2022-10-29T21:03:43.454Z,3.10
2022-10-29T21:06:17.120Z,3.27
2022-10-29T21:08:49.511Z,3.03
2022-10-29T21:11:18.600Z,3.10
2022-10-29T21:13:46.686Z,3.17
2022-10-29T21:16:26.782Z,3.17
2022-10-29T21:18:56.080Z,2.73
2022-10-29T21:21:24.430Z,3.03
2022-10-29T21:23:52.699Z,3.13
2022-10-29T21:26:23.941Z,3.00
2022-10-29T21:28:52.534Z,3.10
2022-10-29T21:31:20.824Z,3.00
2022-10-29T21:33:52.554Z,3.00
2022-10-29T21:36:21.006Z,2.90
2022-10-29T21:38:48.979Z,2.77
2022-10-29T21:41:17.319Z,3.10
2022-10-29T21:43:45.225Z,3.50
2022-10-29T21:46:13.075Z,3.07
2022-10-29T21:48:40.941Z,2.67
2022-10-29T21:51:11.238Z,2.77
2022-10-29T21:53:39.253Z,3.20
2022-10-29T21:56:08.248Z,2.80
2022-10-29T21:58:36.065Z,2.97
2022-10-29T22:01:04.268Z,2.73
2022-10-29T22:03:33.202Z,2.87
2022-10-29T22:06:08.731Z,3.30
2022-10-29T22:08:36.692Z,2.60
2022-10-29T22:11:05.087Z,3.00
2022-10-29T22:13:33.834Z,3.00
2022-10-29T22:16:02.038Z,2.67
2022-10-29T22:18:30.369Z,3.20
2022-10-29T22:21:08.865Z,2.77
2022-10-29T22:23:38.407Z,2.90
2022-10-29T22:26:06.349Z,3.03
2022-10-29T22:28:34.227Z,3.40
2022-10-29T22:31:02.639Z,2.93
2022-10-29T22:33:31.238Z,2.80
2022-10-29T22:36:25.605Z,3.20
2022-10-29T22:38:57.239Z,2.90
2022-10-29T22:41:26.225Z,3.20
2022-10-29T22:43:54.362Z,2.63
2022-10-29T22:46:22.991Z,3.50
2022-10-29T22:48:51.015Z,3.00
2022-10-29T22:51:23.582Z,2.80
2022-10-29T22:53:52.253Z,2.73
2022-10-29T22:56:21.366Z,2.97
2022-10-29T22:58:49.305Z,2.97
2022-10-29T23:01:18.760Z,3.00
2022-10-29T23:03:46.932Z,3.10
2022-10-29T23:06:16.242Z,3.03
2022-10-29T23:08:44.709Z,2.90
2022-10-29T23:11:13.404Z,2.80
2022-10-29T23:13:41.303Z,2.97
2022-10-29T23:16:09.173Z,2.87
2022-10-29T23:18:37.407Z,3.27
2022-10-29T23:21:07.652Z,2.97
2022-10-29T23:23:36.401Z,3.00
2022-10-29T23:26:04.643Z,2.90
2022-10-29T23:28:33.709Z,2.97
2022-10-29T23:31:02.598Z,2.87
2022-10-29T23:33:31.209Z,2.67
2022-10-29T23:36:02.538Z,3.00
2022-10-29T23:38:30.616Z,3.20
2022-10-29T23:40:58.463Z,2.90
2022-10-29T23:43:26.411Z,2.80
2022-10-29T23:45:54.305Z,2.83
2022-10-29T23:48:22.389Z,2.90
2022-10-29T23:50:50.545Z,2.87
2022-10-29T23:53:18.811Z,2.90
2022-10-29T23:55:47.189Z,2.77
2022-10-29T23:58:15.480Z,3.13
